createdAt,value
2022-12-01T00:00:28.467Z,28.60
2022-12-01T00:01:28.462Z,26.50
2022-12-01T00:02:28.609Z,27.90
2022-12-01T00:03:28.502Z,30.70
2022-12-01T00:04:28.424Z,27.50
2022-12-01T00:05:28.417Z,26.40
2022-12-01T00:06:28.425Z,27.70
2022-12-01T00:07:28.449Z,31.90
2022-12-01T00:08:28.378Z,30.00
2022-12-01T00:09:28.378Z,26.80
2022-12-01T00:10:28.384Z,29.00
2022-12-01T00:11:28.371Z,28.00
2022-12-01T00:12:28.341Z,31.60
2022-12-01T00:13:28.339Z,25.90
2022-12-01T00:14:28.330Z,27.30
2022-12-01T00:15:28.298Z,24.70
2022-12-01T00:16:28.373Z,26.80
2022-12-01T00:17:28.293Z,28.20
2022-12-01T00:18:28.270Z,29.30
2022-12-01T00:19:28.291Z,28.60
2022-12-01T00:20:28.254Z,28.40
2022-12-01T00:21:28.231Z,29.30
2022-12-01T00:22:28.258Z,27.40
2022-12-01T00:23:28.217Z,27.00
2022-12-01T00:24:28.245Z,28.10
2022-12-01T00:25:28.191Z,27.70
2022-12-01T00:26:28.188Z,24.80
2022-12-01T00:27:28.187Z,27.10
2022-12-01T00:28:28.176Z,26.60
2022-12-01T00:29:28.145Z,27.20
2022-12-01T00:30:28.171Z,31.10
2022-12-01T00:31:28.198Z,27.00
2022-12-01T00:32:28.114Z,27.10
2022-12-01T00:33:28.107Z,27.90
2022-12-01T00:34:28.105Z,26.80
2022-12-01T00:35:28.106Z,27.50
2022-12-01T00:36:28.076Z,25.30
2022-12-01T00:37:28.064Z,27.50
2022-12-01T00:38:28.064Z,28.30
2022-12-01T00:39:28.037Z,27.90
2022-12-01T00:40:28.030Z,27.60
2022-12-01T00:41:28.031Z,26.30
2022-12-01T00:42:28.005Z,29.70
2022-12-01T00:43:27.996Z,27.50
2022-12-01T00:44:27.984Z,28.20
2022-12-01T00:45:27.984Z,26.70
2022-12-01T00:46:28.124Z,22.00
2022-12-01T00:47:27.947Z,26.40
2022-12-01T00:48:27.950Z,25.60
2022-12-01T00:49:27.942Z,24.00
2022-12-01T00:50:27.949Z,25.90
2022-12-01T00:51:27.903Z,24.50
2022-12-01T00:52:27.909Z,22.70
2022-12-01T00:53:27.896Z,24.10
2022-12-01T00:54:27.903Z,22.20
2022-12-01T00:55:27.867Z,24.20
2022-12-01T00:56:27.868Z,23.20
2022-12-01T00:57:27.860Z,21.60
2022-12-01T00:58:27.831Z,21.30
2022-12-01T00:59:27.830Z,21.40
2022-12-01T01:00:27.839Z,19.30
2022-12-01T01:01:27.898Z,19.30
2022-12-01T01:02:27.920Z,20.00
2022-12-01T01:03:27.787Z,21.20
2022-12-01T01:04:27.793Z,21.20
2022-12-01T01:05:27.778Z,18.90
2022-12-01T01:06:27.751Z,21.20
2022-12-01T01:07:27.814Z,18.60
2022-12-01T01:08:27.724Z,18.90
2022-12-01T01:09:27.707Z,20.10
2022-12-01T01:31:45.709Z,23.90
2022-12-01T01:32:45.661Z,21.90
2022-12-01T01:33:45.656Z,19.40
2022-12-01T01:34:45.648Z,20.50
2022-12-01T01:35:45.624Z,20.50
2022-12-01T01:36:45.650Z,20.30
2022-12-01T01:37:45.605Z,21.90
2022-12-01T01:38:45.625Z,21.40
2022-12-01T01:39:45.720Z,20.60
2022-12-01T01:40:45.577Z,19.00
2022-12-01T01:41:45.579Z,23.80
2022-12-01T01:42:45.552Z,21.00
2022-12-01T01:43:45.578Z,24.10
2022-12-01T01:44:45.544Z,19.20
2022-12-01T01:45:45.557Z,21.40
2022-12-01T01:46:45.512Z,21.10
2022-12-01T01:47:45.531Z,21.10
2022-12-01T01:48:45.499Z,19.90
2022-12-01T01:49:45.653Z,21.40
2022-12-01T01:50:45.464Z,23.90
2022-12-01T01:51:45.450Z,24.80
2022-12-01T01:52:45.464Z,25.30
2022-12-01T01:53:45.433Z,24.50
2022-12-01T01:54:45.423Z,23.20
2022-12-01T01:55:45.406Z,21.70
2022-12-01T01:56:45.408Z,22.10
2022-12-01T01:57:45.398Z,25.60
2022-12-01T01:58:45.393Z,23.30
2022-12-01T01:59:45.489Z,23.60
2022-12-01T02:00:45.370Z,24.60
2022-12-01T02:01:45.419Z,26.90
2022-12-01T02:02:45.545Z,20.30
2022-12-01T02:03:45.343Z,21.70
2022-12-01T02:04:45.310Z,21.20
2022-12-01T02:05:45.309Z,20.50
2022-12-01T02:06:45.305Z,21.00
2022-12-01T02:07:45.367Z,22.10
2022-12-01T02:08:45.268Z,23.10
2022-12-01T02:09:45.404Z,22.90
2022-12-01T02:10:45.264Z,22.20
2022-12-01T02:11:45.232Z,21.10
2022-12-01T02:12:45.237Z,23.70
2022-12-01T02:13:45.226Z,20.30
2022-12-01T02:14:45.218Z,22.70
2022-12-01T02:15:45.186Z,23.10
2022-12-01T22:44:44.101Z,36.40
2022-12-01T22:45:44.060Z,44.40
2022-12-01T22:46:44.169Z,49.00
2022-12-01T22:47:44.042Z,50.80
2022-12-01T22:48:44.028Z,47.90
2022-12-01T22:49:44.022Z,53.00
2022-12-01T22:50:48.688Z,52.70
2022-12-01T22:51:45.000Z,47.20
2022-12-01T22:52:43.983Z,49.90
2022-12-01T22:53:44.078Z,52.60
2022-12-01T22:54:43.971Z,51.60
2022-12-01T22:55:43.951Z,50.60
2022-12-01T22:56:43.949Z,50.20
2022-12-01T22:57:43.948Z,48.90
2022-12-01T22:58:43.955Z,46.70
2022-12-01T22:59:43.910Z,54.30
2022-12-01T23:00:43.916Z,50.90
2022-12-01T23:01:43.956Z,47.00
2022-12-01T23:02:44.000Z,46.70
2022-12-01T23:03:43.881Z,46.80
2022-12-01T23:04:43.873Z,50.60
2022-12-01T23:05:43.866Z,52.80
2022-12-01T23:06:43.891Z,52.50
2022-12-01T23:07:43.894Z,48.90
2022-12-01T23:08:43.820Z,52.50
2022-12-01T23:09:43.819Z,52.00
2022-12-01T23:10:43.788Z,51.70
2022-12-01T23:11:43.793Z,49.00
2022-12-01T23:12:43.770Z,50.60
2022-12-01T23:13:43.763Z,51.20
2022-12-01T23:14:43.746Z,52.50
2022-12-01T23:15:43.776Z,51.20
2022-12-01T23:16:43.757Z,49.00
2022-12-01T23:17:43.717Z,45.60
2022-12-01T23:18:43.706Z,49.90
2022-12-01T23:19:43.695Z,50.80
2022-12-01T23:20:43.709Z,48.70
2022-12-01T23:21:43.697Z,53.20
2022-12-01T23:22:43.671Z,53.40
2022-12-01T23:23:43.662Z,52.70
2022-12-01T23:24:43.667Z,52.80
2022-12-01T23:25:43.635Z,49.70
2022-12-01T23:26:43.626Z,51.20
2022-12-01T23:27:43.621Z,50.90
2022-12-01T23:28:43.594Z,52.50
2022-12-01T23:29:43.591Z,50.60
2022-12-01T23:30:43.594Z,52.90
2022-12-01T23:31:43.600Z,57.20
2022-12-01T23:32:43.587Z,53.90
2022-12-01T23:33:43.554Z,54.40
2022-12-01T23:34:43.545Z,55.50
2022-12-01T23:35:43.519Z,60.40
2022-12-01T23:36:43.516Z,57.00
2022-12-01T23:37:43.513Z,55.70
2022-12-01T23:38:43.482Z,52.40
2022-12-01T23:39:43.481Z,57.50
2022-12-01T23:40:43.475Z,54.40
2022-12-01T23:41:43.476Z,60.70
2022-12-01T23:42:43.441Z,58.80
2022-12-01T23:43:43.462Z,58.10
2022-12-01T23:44:43.427Z,57.00
2022-12-01T23:45:43.436Z,54.80
2022-12-01T23:46:43.466Z,57.50
2022-12-01T23:47:43.403Z,57.40
2022-12-01T23:48:43.411Z,60.30
2022-12-01T23:49:43.368Z,60.70
2022-12-01T23:50:43.388Z,60.60
2022-12-01T23:51:43.381Z,55.80
2022-12-01T23:52:43.348Z,60.90
2022-12-01T23:53:43.326Z,61.10
2022-12-01T23:54:43.315Z,59.80
2022-12-01T23:55:43.321Z,58.60
2022-12-01T23:56:43.312Z,57.50
2022-12-01T23:57:43.309Z,59.50
2022-12-01T23:58:43.269Z,61.60
2022-12-01T23:59:43.260Z,59.40
